createdAt,value
2019-02-26T00:02:11.047Z,102312.83
2019-02-26T00:04:42.821Z,102310.67
2019-02-26T00:07:18.245Z,102311.52
2019-02-26T00:09:51.308Z,102312.84
2019-02-26T00:12:26.273Z,102314.16
2019-02-26T00:14:59.672Z,102312.44
2019-02-26T00:17:36.161Z,102315.92
2019-02-26T00:20:10.239Z,102311.11
2019-02-26T00:22:42.204Z,102313.67
2019-02-26T00:25:15.322Z,102314.44
2019-02-26T00:28:10.863Z,102309.95
2019-02-26T00:30:48.149Z,102313.30
2019-02-26T00:33:25.204Z,102317.16
2019-02-26T00:36:06.639Z,102322.42
2019-02-26T00:41:58.219Z,102322.91
2019-02-26T00:44:38.254Z,102318.56
2019-02-26T00:47:14.392Z,102317.23
2019-02-26T00:49:51.007Z,102317.59
2019-02-26T00:52:28.167Z,102317.92
2019-02-26T00:55:04.906Z,102322.20
2019-02-26T00:57:40.492Z,102324.41
2019-02-26T01:00:24.690Z,102323.98
2019-02-26T01:03:09.141Z,102317.03
2019-02-26T01:05:45.770Z,102315.67
2019-02-26T01:08:24.986Z,102305.19
2019-02-26T01:11:08.432Z,102308.70
2019-02-26T01:13:52.745Z,102299.61
2019-02-26T01:16:31.787Z,102302.25
2019-02-26T01:19:08.537Z,102301.80
2019-02-26T01:22:13.937Z,102297.05
2019-02-26T01:24:49.857Z,102306.61
2019-02-26T01:27:35.169Z,102304.04
2019-02-26T01:30:09.677Z,102301.03
2019-02-26T01:32:45.188Z,102291.92
2019-02-26T01:35:19.542Z,102294.07
2019-02-26T01:37:52.046Z,102295.83
2019-02-26T01:40:25.978Z,102292.78
2019-02-26T01:42:58.527Z,102290.48
2019-02-26T01:45:33.675Z,102280.30
2019-02-26T01:48:11.436Z,102275.26
2019-02-26T01:50:49.383Z,102266.83
2019-02-26T01:53:27.226Z,102260.16
2019-02-26T01:55:58.418Z,102263.05
2019-02-26T01:58:33.415Z,102264.27
2019-02-26T02:01:14.053Z,102255.16
2019-02-26T02:03:48.807Z,102253.88
2019-02-26T02:06:22.008Z,102245.28
2019-02-26T02:08:55.967Z,102242.32
2019-02-26T02:11:31.189Z,102243.16
2019-02-26T02:14:05.742Z,102235.25
2019-02-26T02:16:35.645Z,102240.38
2019-02-26T02:19:08.450Z,102242.55
2019-02-26T02:21:41.549Z,102233.04
2019-02-26T02:24:15.573Z,102235.25
2019-02-26T02:26:52.635Z,102241.78
2019-02-26T02:29:24.527Z,102246.56
2019-02-26T02:31:59.441Z,102235.67
2019-02-26T02:34:32.833Z,102235.60
2019-02-26T02:37:04.955Z,102244.16
2019-02-26T02:39:36.673Z,102246.65
2019-02-26T02:42:10.714Z,102248.29
2019-02-26T02:44:44.833Z,102253.95
2019-02-26T02:47:17.135Z,102248.34
2019-02-26T02:49:48.747Z,102247.58
2019-02-26T02:52:24.254Z,102248.53
2019-02-26T02:54:56.994Z,102245.58
2019-02-26T02:57:30.003Z,102242.15
2019-02-26T03:00:02.953Z,102233.97
2019-02-26T03:02:40.534Z,102235.29
2019-02-26T03:05:10.201Z,102233.11
2019-02-26T03:07:42.875Z,102227.06
2019-02-26T03:10:15.741Z,102229.69
2019-02-26T03:12:52.197Z,102232.74
2019-02-26T03:15:23.979Z,102225.78
2019-02-26T03:17:54.586Z,102229.27
2019-02-26T03:20:28.646Z,102220.16
2019-02-26T03:23:04.588Z,102231.02
2019-02-26T03:25:36.958Z,102233.61
2019-02-26T03:28:09.097Z,102238.81
2019-02-26T03:30:44.130Z,102238.84
2019-02-26T03:33:15.172Z,102237.97
2019-02-26T03:35:46.809Z,102229.73
2019-02-26T03:38:20.631Z,102231.03
2019-02-26T03:40:52.788Z,102227.16
2019-02-26T03:43:28.650Z,102224.13
2019-02-26T03:46:00.053Z,102221.52
2019-02-26T03:48:31.678Z,102213.71
2019-02-26T03:51:03.615Z,102211.13
2019-02-26T03:53:36.346Z,102213.31
2019-02-26T03:56:12.538Z,102212.88
2019-02-26T03:58:43.076Z,102212.46
2019-02-26T04:01:18.312Z,102211.13
2019-02-26T04:03:51.015Z,102211.95
2019-02-26T04:06:22.640Z,102209.77
2019-02-26T04:08:55.995Z,102211.03
2019-02-26T04:11:27.820Z,102211.47
2019-02-26T04:13:59.609Z,102220.58
2019-02-26T04:16:32.467Z,102210.12
2019-02-26T04:19:08.906Z,102203.59
2019-02-26T04:22:27.135Z,102206.18
2019-02-26T04:25:35.482Z,102203.97
2019-02-26T04:28:30.673Z,102190.92
2019-02-26T04:31:41.581Z,102193.47
2019-02-26T04:34:59.202Z,102190.88
2019-02-26T04:38:07.505Z,102186.49
2019-02-26T04:41:26.434Z,102190.34
2019-02-26T04:45:05.178Z,102185.80
2019-02-26T04:47:36.141Z,102177.67
2019-02-26T04:50:09.874Z,102179.83
2019-02-26T04:52:43.494Z,102183.09
2019-02-26T04:55:16.583Z,102179.88
2019-02-26T04:57:51.008Z,102178.02
2019-02-26T05:00:23.522Z,102182.83
2019-02-26T05:02:55.334Z,102184.23
2019-02-26T05:05:31.972Z,102183.03
2019-02-26T05:08:07.641Z,102183.06
2019-02-26T05:10:38.484Z,102183.48
2019-02-26T05:13:11.227Z,102176.05
2019-02-26T05:15:43.632Z,102179.81
2019-02-26T05:18:20.320Z,102173.19
2019-02-26T05:20:52.238Z,102178.24
2019-02-26T05:23:25.900Z,102178.09
2019-02-26T05:26:02.954Z,102181.47
2019-02-26T05:28:37.653Z,102183.71
2019-02-26T05:31:09.163Z,102181.26
2019-02-26T05:33:42.299Z,102177.08
2019-02-26T05:36:16.460Z,102182.83
2019-02-26T05:38:49.283Z,102190.72
2019-02-26T05:41:21.058Z,102189.45
2019-02-26T05:43:57.849Z,102184.72
2019-02-26T05:46:29.923Z,102181.70
2019-02-26T05:49:06.815Z,102180.88
2019-02-26T05:51:38.198Z,102177.89
2019-02-26T05:54:12.261Z,102185.75
2019-02-26T05:56:46.140Z,102185.36
2019-02-26T05:59:21.718Z,102177.59
2019-02-26T06:01:55.940Z,102180.29
2019-02-26T06:04:31.731Z,102185.97
2019-02-26T06:07:04.696Z,102189.89
2019-02-26T06:09:38.039Z,102192.53
2019-02-26T06:12:09.698Z,102190.38
2019-02-26T06:14:41.356Z,102202.14
2019-02-26T06:17:17.209Z,102204.73
2019-02-26T06:19:50.315Z,102206.45
2019-02-26T06:22:26.028Z,102209.02
2019-02-26T06:25:00.307Z,102209.87
2019-02-26T06:27:32.439Z,102211.14
2019-02-26T06:30:06.544Z,102225.43
2019-02-26T06:32:44.661Z,102229.72
2019-02-26T06:35:19.606Z,102232.31
2019-02-26T06:37:52.430Z,102227.51
2019-02-26T06:40:24.329Z,102227.05
2019-02-26T06:42:55.973Z,102231.41
2019-02-26T06:45:27.634Z,102225.79
2019-02-26T06:47:59.251Z,102229.72
2019-02-26T06:50:34.088Z,102240.56
2019-02-26T06:53:08.529Z,102234.52
2019-02-26T06:55:39.914Z,102239.33
2019-02-26T06:58:31.873Z,102239.36
2019-02-26T07:01:03.774Z,102244.59
2019-02-26T07:03:35.392Z,102248.94
2019-02-26T07:06:07.337Z,102257.61
2019-02-26T07:08:39.391Z,102252.38
2019-02-26T07:11:11.107Z,102252.84
2019-02-26T07:13:43.870Z,102251.61
2019-02-26T07:16:18.043Z,102252.09
2019-02-26T07:18:49.529Z,102259.07
2019-02-26T07:21:21.590Z,102256.11
2019-02-26T07:23:54.613Z,102259.67
2019-02-26T07:26:26.642Z,102268.45
2019-02-26T07:28:58.901Z,102267.20
2019-02-26T07:31:28.825Z,102259.00
2019-02-26T07:34:03.152Z,102261.66
2019-02-26T07:36:35.203Z,102268.19
2019-02-26T07:39:13.084Z,102273.42
2019-02-26T07:41:44.660Z,102277.84
2019-02-26T07:44:19.627Z,102280.04
2019-02-26T07:46:51.897Z,102285.30
2019-02-26T07:49:23.554Z,102284.95
2019-02-26T07:51:58.268Z,102283.73
2019-02-26T07:54:30.020Z,102280.77
2019-02-26T07:57:02.858Z,102277.78
2019-02-26T07:59:36.829Z,102282.64
2019-02-26T08:02:08.876Z,102272.75
2019-02-26T08:04:43.509Z,102273.70
2019-02-26T08:07:14.862Z,102268.11
2019-02-26T08:09:47.016Z,102270.80
2019-02-26T08:12:18.634Z,102267.83
2019-02-26T08:14:50.322Z,102272.25
2019-02-26T08:17:21.945Z,102266.72
2019-02-26T08:19:53.580Z,102271.58
2019-02-26T08:22:27.543Z,102275.13
2019-02-26T08:25:00.545Z,102282.15
2019-02-26T08:27:33.861Z,102274.83
2019-02-26T08:30:14.478Z,102271.85
2019-02-26T08:32:48.384Z,102271.08
2019-02-26T08:35:20.741Z,102273.31
2019-02-26T08:37:52.529Z,102270.34
2019-02-26T08:40:25.530Z,102259.56
2019-02-26T08:43:02.419Z,102254.81
2019-02-26T08:45:34.094Z,102250.55
2019-02-26T08:48:08.513Z,102258.86
2019-02-26T08:50:44.497Z,102254.09
2019-02-26T08:53:17.251Z,102252.41
2019-02-26T08:55:53.619Z,102252.01
2019-02-26T08:58:28.059Z,102249.85
2019-02-26T09:00:59.152Z,102252.92
2019-02-26T09:03:40.147Z,102253.83
2019-02-26T09:06:12.814Z,102252.98
2019-02-26T09:08:43.020Z,102252.55
2019-02-26T09:11:17.272Z,102253.42
2019-02-26T09:13:49.048Z,102252.11
2019-02-26T09:16:22.301Z,102245.56
2019-02-26T09:18:54.183Z,102243.37
2019-02-26T09:21:25.922Z,102237.69
2019-02-26T09:23:59.497Z,102232.43
2019-02-26T09:26:31.307Z,102226.76
2019-02-26T09:29:03.644Z,102233.27
2019-02-26T09:31:35.305Z,102234.98
2019-02-26T09:34:06.915Z,102231.02
2019-02-26T09:36:38.675Z,102229.66
2019-02-26T09:39:10.801Z,102230.92
2019-02-26T09:41:45.533Z,102233.48
2019-02-26T09:44:17.351Z,102238.23
2019-02-26T09:46:49.019Z,102229.44
2019-02-26T09:49:24.586Z,102229.81
2019-02-26T09:51:56.823Z,102227.52
2019-02-26T09:54:29.860Z,102232.23
2019-02-26T09:57:01.941Z,102230.41
2019-02-26T09:59:35.770Z,102229.48
2019-02-26T10:02:07.020Z,102223.27
2019-02-26T10:04:38.803Z,102221.42
2019-02-26T10:07:12.518Z,102221.76
2019-02-26T10:09:46.494Z,102212.03
2019-02-26T10:12:18.682Z,102207.99
2019-02-26T10:14:52.329Z,102205.69
2019-02-26T10:17:25.027Z,102200.34
2019-02-26T10:19:56.965Z,102204.16
2019-02-26T10:22:33.311Z,102194.88
2019-02-26T10:25:03.626Z,102195.63
2019-02-26T10:27:36.163Z,102194.19
2019-02-26T10:30:11.238Z,102197.59
2019-02-26T10:32:41.087Z,102192.20
2019-02-26T10:35:18.507Z,102189.87
2019-02-26T10:37:52.555Z,102185.39
2019-02-26T10:40:34.298Z,102186.13
2019-02-26T10:42:57.665Z,102180.34
2019-02-26T10:45:29.834Z,102186.31
2019-02-26T10:48:01.863Z,102177.43
2019-02-26T10:50:33.591Z,102177.27
2019-02-26T10:53:09.579Z,102177.14
2019-02-26T10:55:41.803Z,102172.63
2019-02-26T10:58:13.837Z,102179.84
2019-02-26T11:00:47.117Z,102171.39
2019-02-26T11:03:20.244Z,102172.52
2019-02-26T11:05:52.505Z,102169.70
2019-02-26T11:08:26.758Z,102176.13
2019-02-26T11:10:57.671Z,102175.07
2019-02-26T11:13:29.352Z,102164.39
2019-02-26T11:16:02.986Z,102170.78
2019-02-26T11:18:37.865Z,102165.30
2019-02-26T11:21:12.390Z,102169.02
2019-02-26T11:23:46.512Z,102166.25
2019-02-26T11:26:18.911Z,102161.22
2019-02-26T11:28:52.154Z,102161.48
2019-02-26T11:31:25.342Z,102155.17
2019-02-26T11:33:57.303Z,102151.45
2019-02-26T11:36:31.225Z,102153.89
2019-02-26T11:39:04.265Z,102154.98
2019-02-26T11:41:35.986Z,102149.11
2019-02-26T11:44:12.526Z,102152.83
2019-02-26T11:46:41.436Z,102146.98
2019-02-26T11:49:16.894Z,102147.73
2019-02-26T11:51:49.616Z,102134.39
2019-02-26T11:54:22.448Z,102140.73
2019-02-26T11:56:54.201Z,102130.86
2019-02-26T11:59:26.077Z,102135.47
2019-02-26T12:01:59.108Z,102129.16
2019-02-26T12:04:33.346Z,102135.56
2019-02-26T12:07:07.422Z,102121.33
2019-02-26T12:09:40.777Z,102118.09
2019-02-26T12:12:12.662Z,102114.42
2019-02-26T12:14:46.660Z,102120.37
2019-02-26T12:17:17.896Z,102113.17
2019-02-26T12:19:51.475Z,102108.17
2019-02-26T12:22:25.214Z,102103.20
2019-02-26T12:24:58.774Z,102100.83
2019-02-26T12:27:32.519Z,102102.39
2019-02-26T12:30:13.348Z,102097.38
2019-02-26T12:32:47.263Z,102095.04
2019-02-26T12:35:21.324Z,102104.11
2019-02-26T12:37:55.882Z,102107.97
2019-02-26T12:40:28.050Z,102099.88
2019-02-26T12:43:02.017Z,102094.45
2019-02-26T12:45:38.641Z,102094.67
2019-02-26T12:48:10.285Z,102082.20
2019-02-26T12:50:42.628Z,102075.36
2019-02-26T12:53:17.205Z,102064.17
2019-02-26T12:55:47.848Z,102066.59
2019-02-26T12:58:21.355Z,102052.75
2019-02-26T13:00:53.309Z,102053.45
2019-02-26T13:03:25.129Z,102057.22
2019-02-26T13:05:57.527Z,102047.42
2019-02-26T13:08:30.367Z,102042.01
2019-02-26T13:11:02.072Z,102045.02
2019-02-26T13:13:37.138Z,102041.39
2019-02-26T13:16:08.827Z,102044.73
2019-02-26T13:18:41.810Z,102040.60
2019-02-26T13:21:17.234Z,102043.08
2019-02-26T13:23:49.068Z,102040.80
2019-02-26T13:26:22.521Z,102043.73
2019-02-26T13:28:56.076Z,102038.27
2019-02-26T13:31:26.602Z,102035.08
2019-02-26T13:33:58.393Z,102032.18
2019-02-26T13:36:30.825Z,102022.41
2019-02-26T13:39:05.469Z,102012.56
2019-02-26T13:41:39.958Z,102014.16
2019-02-26T13:44:16.827Z,102014.84
2019-02-26T13:46:50.224Z,102014.66
2019-02-26T13:49:23.569Z,102005.30
2019-02-26T13:52:01.930Z,102001.60
2019-02-26T13:54:36.041Z,101997.98
2019-02-26T13:57:09.252Z,101986.80
2019-02-26T13:59:40.931Z,101993.24
2019-02-26T14:02:12.839Z,101988.63
2019-02-26T14:04:44.541Z,101985.34
2019-02-26T14:07:16.696Z,101983.42
2019-02-26T14:09:48.483Z,101988.16
2019-02-26T14:12:21.846Z,101979.20
2019-02-26T14:14:55.143Z,101972.02
2019-02-26T14:17:28.497Z,101977.64
2019-02-26T14:20:00.365Z,101973.48
2019-02-26T14:22:32.052Z,101969.05
2019-02-26T14:25:04.037Z,101970.27
2019-02-26T14:27:37.321Z,101966.61
2019-02-26T14:30:11.581Z,101961.20
2019-02-26T14:32:43.575Z,101958.92
2019-02-26T14:35:17.793Z,101961.47
2019-02-26T14:37:50.812Z,101959.89
2019-02-26T14:40:24.223Z,101951.28
2019-02-26T14:42:58.426Z,101940.48
2019-02-26T14:45:30.172Z,101935.90
2019-02-26T14:48:02.373Z,101940.63
2019-02-26T14:50:34.139Z,101935.33
2019-02-26T14:53:07.991Z,101931.34
2019-02-26T14:55:42.015Z,101934.81
2019-02-26T14:58:13.737Z,101932.97
2019-02-26T15:00:45.399Z,101929.36
2019-02-26T15:03:17.373Z,101922.63
2019-02-26T15:05:49.172Z,101917.11
2019-02-26T15:08:22.965Z,101916.59
2019-02-26T15:10:55.359Z,101911.66
2019-02-26T15:13:27.344Z,101908.95
2019-02-26T15:15:59.218Z,101908.48
2019-02-26T15:18:31.012Z,101906.64
2019-02-26T15:21:02.872Z,101900.87
2019-02-26T15:23:34.527Z,101899.92
2019-02-26T15:26:06.704Z,101897.27
2019-02-26T15:28:39.625Z,101899.86
2019-02-26T15:31:14.067Z,101892.77
2019-02-26T15:33:43.305Z,101895.88
2019-02-26T15:36:15.026Z,101893.28
2019-02-26T15:38:46.848Z,101895.08
2019-02-26T15:41:18.741Z,101889.92
2019-02-26T15:43:50.380Z,101888.59
2019-02-26T15:46:22.110Z,101887.72
2019-02-26T15:48:53.769Z,101874.98
2019-02-26T15:51:25.490Z,101878.64
2019-02-26T15:54:00.368Z,101884.01
2019-02-26T15:56:35.263Z,101873.95
2019-02-26T15:59:07.299Z,101878.45
2019-02-26T16:01:40.998Z,101880.78
2019-02-26T16:04:12.760Z,101876.00
2019-02-26T16:06:45.535Z,101875.66
2019-02-26T16:09:17.495Z,101877.53
2019-02-26T16:11:50.066Z,101876.28
2019-02-26T16:14:24.068Z,101879.59
2019-02-26T16:16:55.900Z,101883.78
2019-02-26T16:19:27.743Z,101887.90
2019-02-26T16:22:00.474Z,101883.72
2019-02-26T16:24:33.388Z,101884.83
2019-02-26T16:27:05.068Z,101885.89
2019-02-26T16:29:37.900Z,101887.02
2019-02-26T16:32:10.773Z,101882.83
2019-02-26T16:34:43.763Z,101883.48
2019-02-26T16:37:16.627Z,101880.62
2019-02-26T16:39:48.305Z,101878.21
2019-02-26T16:42:20.449Z,101881.52
2019-02-26T16:44:52.753Z,101879.16
2019-02-26T16:47:25.796Z,101878.48
2019-02-26T16:49:58.646Z,101878.75
2019-02-26T16:52:31.407Z,101883.02
2019-02-26T16:55:03.197Z,101885.45
2019-02-26T16:57:37.530Z,101881.34
2019-02-26T17:00:15.653Z,101879.38
2019-02-26T17:02:46.360Z,101884.17
2019-02-26T17:05:18.106Z,101883.98
2019-02-26T17:07:49.743Z,101886.86
2019-02-26T17:10:21.915Z,101886.75
2019-02-26T17:12:55.266Z,101890.03
2019-02-26T17:15:30.262Z,101886.73
2019-02-26T17:18:03.220Z,101880.88
2019-02-26T17:20:35.318Z,101885.98
2019-02-26T17:23:07.257Z,101886.19
2019-02-26T17:25:39.052Z,101891.77
2019-02-26T17:28:12.402Z,101890.22
2019-02-26T17:30:51.646Z,101895.30
2019-02-26T17:33:23.333Z,101900.00
2019-02-26T17:35:55.152Z,101907.80
2019-02-26T17:38:27.170Z,101908.91
2019-02-26T17:40:59.133Z,101910.02
2019-02-26T17:43:32.856Z,101911.53
2019-02-26T17:46:05.276Z,101907.31
2019-02-26T17:48:43.392Z,101911.43
2019-02-26T17:51:10.827Z,101915.55
2019-02-26T17:53:42.595Z,101921.47
2019-02-26T17:56:14.416Z,101919.77
2019-02-26T17:58:49.467Z,101927.38
2019-02-26T18:01:22.485Z,101926.52
2019-02-26T18:03:54.548Z,101918.60
2019-02-26T18:06:26.295Z,101916.31
2019-02-26T18:08:58.778Z,101918.34
2019-02-26T18:11:30.853Z,101914.66
2019-02-26T18:14:02.631Z,101917.59
2019-02-26T18:16:34.565Z,101912.64
2019-02-26T18:19:07.286Z,101908.14
2019-02-26T18:21:39.110Z,101917.16
2019-02-26T18:24:10.804Z,101918.75
2019-02-26T18:26:43.860Z,101919.41
2019-02-26T18:29:20.425Z,101923.48
2019-02-26T18:31:53.426Z,101925.70
2019-02-26T18:34:31.027Z,101918.72
2019-02-26T18:37:03.037Z,101910.91
2019-02-26T18:39:35.922Z,101913.33
2019-02-26T18:42:08.370Z,101914.40
2019-02-26T18:44:40.207Z,101918.13
2019-02-26T18:47:12.103Z,101913.45
2019-02-26T18:49:56.994Z,101913.14
2019-02-26T18:52:29.053Z,101913.76
2019-02-26T18:55:01.019Z,101905.49
2019-02-26T18:57:32.896Z,101910.81
2019-02-26T19:00:05.714Z,101915.21
2019-02-26T19:02:38.804Z,101914.31
2019-02-26T19:05:11.972Z,101915.26
2019-02-26T19:07:44.333Z,101916.66
2019-02-26T19:10:20.746Z,101918.95
2019-02-26T19:12:53.007Z,101913.39
2019-02-26T19:15:25.214Z,101907.45
2019-02-26T19:17:57.241Z,101909.35
2019-02-26T19:20:30.945Z,101913.03
2019-02-26T19:23:02.598Z,101913.16
2019-02-26T19:25:34.793Z,101917.63
2019-02-26T19:28:09.827Z,101919.00
2019-02-26T19:30:46.287Z,101922.17
2019-02-26T19:33:21.703Z,101918.33
2019-02-26T19:35:52.536Z,101918.87
2019-02-26T19:38:27.266Z,101922.11
2019-02-26T19:40:59.670Z,101928.97
2019-02-26T19:43:31.472Z,101920.08
2019-02-26T19:46:03.247Z,101919.41
2019-02-26T19:48:35.297Z,101923.59
2019-02-26T19:51:07.266Z,101923.34
2019-02-26T19:53:39.163Z,101921.27
2019-02-26T19:56:11.594Z,101920.88
2019-02-26T19:58:43.431Z,101924.95
2019-02-26T20:01:15.569Z,101924.19
2019-02-26T20:03:47.364Z,101923.47
2019-02-26T20:06:23.267Z,101923.60
2019-02-26T20:08:53.993Z,101926.38
2019-02-26T20:11:26.267Z,101915.60
2019-02-26T20:14:04.479Z,101922.25
2019-02-26T20:16:31.616Z,101917.98
2019-02-26T20:19:03.461Z,101916.75
2019-02-26T20:21:35.499Z,101915.52
2019-02-26T20:24:07.399Z,101913.89
2019-02-26T20:26:39.427Z,101916.58
2019-02-26T20:29:11.794Z,101914.02
2019-02-26T20:31:43.835Z,101911.45
2019-02-26T20:34:18.077Z,101910.66
2019-02-26T20:36:51.848Z,101912.89
2019-02-26T20:39:23.554Z,101907.23
2019-02-26T20:41:55.699Z,101907.29
2019-02-26T20:44:28.329Z,101904.72
2019-02-26T20:47:00.095Z,101897.30
2019-02-26T20:49:32.009Z,101905.54
2019-02-26T20:52:03.756Z,101897.67
2019-02-26T20:54:35.849Z,101907.72
2019-02-26T20:57:07.567Z,101899.88
2019-02-26T20:59:40.422Z,101900.41
2019-02-26T21:02:12.120Z,101903.48
2019-02-26T21:04:43.987Z,101901.75
2019-02-26T21:07:15.828Z,101900.43
2019-02-26T21:09:47.580Z,101902.18
2019-02-26T21:12:19.487Z,101903.98
2019-02-26T21:14:51.806Z,101897.94
2019-02-26T21:17:25.853Z,101908.07
2019-02-26T21:19:57.474Z,101905.98
2019-02-26T21:22:29.218Z,101899.53
2019-02-26T21:25:02.393Z,101901.80
2019-02-26T21:27:36.811Z,101900.06
2019-02-26T21:30:11.820Z,101904.90
2019-02-26T21:32:39.013Z,101894.44
2019-02-26T21:35:11.545Z,101902.80
2019-02-26T21:37:43.597Z,101901.09
2019-02-26T21:40:17.096Z,101909.82
2019-02-26T21:42:48.968Z,101896.34
2019-02-26T21:45:23.706Z,101897.69
2019-02-26T21:47:55.479Z,101901.21
2019-02-26T21:50:29.837Z,101897.73
2019-02-26T21:53:03.204Z,101899.94
2019-02-26T21:55:43.891Z,101892.57
2019-02-26T21:58:09.269Z,101896.49
2019-02-26T22:00:41.627Z,101889.19
2019-02-26T22:03:13.353Z,101893.57
2019-02-26T22:05:45.148Z,101897.09
2019-02-26T22:08:18.592Z,101905.39
2019-02-26T22:10:50.437Z,101906.23
2019-02-26T22:13:23.426Z,101905.33
2019-02-26T22:15:57.177Z,101900.08
2019-02-26T22:18:34.009Z,101895.69
2019-02-26T22:21:03.120Z,101900.45
2019-02-26T22:23:34.949Z,101901.79
2019-02-26T22:26:08.230Z,101902.25
2019-02-26T22:28:42.666Z,101904.46
2019-02-26T22:31:14.593Z,101897.05
2019-02-26T22:33:50.013Z,101898.42
2019-02-26T22:36:21.682Z,101896.73
2019-02-26T22:38:53.836Z,101901.13
2019-02-26T22:41:28.186Z,101894.61
2019-02-26T22:43:59.956Z,101898.13
2019-02-26T22:46:33.899Z,101903.81
2019-02-26T22:49:07.079Z,101903.81
2019-02-26T22:51:38.725Z,101898.61
2019-02-26T22:54:11.989Z,101900.77
2019-02-26T22:56:43.740Z,101900.82
2019-02-26T22:59:15.591Z,101900.84
2019-02-26T23:01:48.184Z,101902.59
2019-02-26T23:04:20.456Z,101906.08
2019-02-26T23:06:52.074Z,101895.67
2019-02-26T23:09:27.894Z,101900.47
2019-02-26T23:12:00.017Z,101900.02
2019-02-26T23:14:31.688Z,101900.02
2019-02-26T23:17:04.984Z,101894.37
2019-02-26T23:19:37.448Z,101890.45
2019-02-26T23:22:10.327Z,101897.86
2019-02-26T23:24:44.454Z,101895.23
2019-02-26T23:27:16.210Z,101900.02
2019-02-26T23:29:47.830Z,101902.61
2019-02-26T23:32:20.626Z,101899.13
2019-02-26T23:35:08.881Z,101903.05
2019-02-26T23:37:40.674Z,101899.55
2019-02-26T23:40:14.277Z,101901.76
2019-02-26T23:42:46.115Z,101896.97
2019-02-26T23:45:17.864Z,101900.02
2019-02-26T23:47:49.743Z,101898.30
2019-02-26T23:50:23.296Z,101905.23
2019-02-26T23:52:54.922Z,101902.64
2019-02-26T23:55:27.713Z,101902.64
2019-02-26T23:57:59.294Z,101904.80
